Time;durP1;ratioP1;P1;durP2;ratioP2;P2;SDS_P1;SDS_P2;PMS_P1;PMS_P2;Temp;Humidity;BMP_temperature;BMP_pressure;BME280_temperature;BME280_humidity;BME280_pressure;Samples;Min_cycle;Max_cycle;Signal;HPM_P1;HPM_P2
2022/05/05 00:02:01;;;;;;;31.80;8.75;;;;;;;23.22;44.97;101286.44;4180900;28;20381;-64
2022/05/05 00:04:03;;;;;;;30.25;9.05;;;;;;;23.23;45.40;101285.31;4181245;28;20041;-64
2022/05/05 00:06:04;;;;;;;26.60;9.35;;;;;;;23.22;45.32;101289.22;4180584;28;20090;-64
2022/05/05 00:08:07;;;;;;;25.58;9.13;;;;;;;23.13;45.30;101271.41;4181387;28;20488;-64
2022/05/05 00:14:50;;;;;;;25.67;8.60;;;;;;;23.22;45.31;101294.81;4181663;28;20087;-65
2022/05/05 00:16:57;;;;;;;25.17;9.07;;;;;;;23.07;45.34;101278.16;4180583;28;20041;-65
2022/05/05 00:18:58;;;;;;;24.15;9.52;;;;;;;23.21;44.99;101301.50;4181023;28;20098;-65
2022/05/05 00:21:02;;;;;;;21.80;8.75;;;;;;;23.20;44.99;101305.44;4180782;28;20041;-65
2022/05/05 00:23:04;;;;;;;26.35;8.23;;;;;;;23.17;45.11;101294.84;4181037;28;20067;-64
2022/05/05 00:25:05;;;;;;;26.05;9.23;;;;;;;23.08;44.81;101277.03;4181134;28;20553;-65
2022/05/05 00:27:12;;;;;;;21.52;7.72;;;;;;;23.18;45.08;101302.06;4180463;28;20045;-64
2022/05/05 00:29:14;;;;;;;22.10;8.48;;;;;;;23.17;45.44;101297.63;4181007;28;20041;-65
2022/05/05 00:31:15;;;;;;;20.58;8.77;;;;;;;23.12;44.93;101291.25;4180762;28;20041;-65
2022/05/05 00:33:17;;;;;;;22.77;8.27;;;;;;;23.13;45.25;101296.53;4180730;28;20037;-66
2022/05/05 00:35:18;;;;;;;28.67;8.32;;;;;;;23.19;45.15;101303.78;4180745;28;20037;-65
2022/05/05 00:37:19;;;;;;;31.35;8.45;;;;;;;23.10;44.92;101288.75;4181071;28;20460;-65
2022/05/05 00:39:23;;;;;;;22.13;8.52;;;;;;;23.10;45.01;101294.34;4180900;28;20049;-63
2022/05/05 00:41:25;;;;;;;18.35;8.48;;;;;;;23.12;45.20;101306.03;4180795;28;20500;-64
2022/05/05 00:43:30;;;;;;;27.73;8.20;;;;;;;23.14;44.83;101301.00;4181034;28;20484;-65
2022/05/05 00:45:31;;;;;;;25.65;8.60;;;;;;;23.11;45.24;101309.94;4180464;28;20442;-66
2022/05/05 00:47:33;;;;;;;20.08;8.23;;;;;;;23.14;45.06;101316.91;4181958;28;20041;-65
2022/05/05 00:49:34;;;;;;;27.15;8.93;;;;;;;23.05;45.01;101297.97;4182939;28;20045;-65
2022/05/05 00:51:38;;;;;;;21.00;8.20;;;;;;;23.04;44.93;101301.03;4184414;28;20041;-65
2022/05/05 00:53:42;;;;;;;19.47;7.93;;;;;;;23.13;44.95;101327.22;4184290;28;20037;-66
2022/05/05 00:55:44;;;;;;;30.50;8.82;;;;;;;23.05;44.78;101323.09;4184184;28;20066;-66
2022/05/05 00:57:48;;;;;;;26.75;8.80;;;;;;;23.11;45.26;101329.50;4184202;28;20118;-65
2022/05/05 00:59:51;;;;;;;22.55;7.93;;;;;;;23.09;44.86;101334.50;4184077;28;20041;-65
2022/05/05 01:01:58;;;;;;;23.83;8.68;;;;;;;23.11;44.85;101343.44;4183558;28;20053;-65
2022/05/05 01:04:03;;;;;;;19.67;8.77;;;;;;;23.02;44.89;101336.78;4183576;28;20538;-66
2022/05/05 01:06:08;;;;;;;;;;;;;;;23.07;45.40;101356.31;4183842;28;20439;-65
2022/05/05 01:08:09;;;;;;;22.77;8.13;;;;;;;23.15;45.14;101357.69;4184165;28;19963;-65
2022/05/05 01:10:13;;;;;;;22.88;8.15;;;;;;;23.11;44.93;101351.81;4183895;28;20420;-65
2022/05/05 01:12:15;;;;;;;18.27;8.57;;;;;;;23.13;45.11;101366.31;4183918;28;20072;-65
2022/05/05 01:14:16;;;;;;;21.88;7.88;;;;;;;23.12;45.01;101364.66;4183451;28;20090;-65
2022/05/05 01:16:18;;;;;;;15.60;7.10;;;;;;;23.13;44.63;101371.91;4183332;28;20037;-65
2022/05/05 01:18:20;;;;;;;17.33;7.70;;;;;;;23.09;44.88;101376.38;4183551;28;20041;-65
2022/05/05 01:20:22;;;;;;;21.15;7.38;;;;;;;22.93;45.10;101355.25;4184100;28;20029;-64
2022/05/05 01:22:26;;;;;;;17.48;8.60;;;;;;;23.07;45.03;101384.22;4183653;28;20048;-65
2022/05/05 01:29:09;;;;;;;21.45;8.25;;;;;;;23.03;45.03;101377.53;4184544;28;20098;-64
2022/05/05 01:31:11;;;;;;;18.23;8.75;;;;;;;23.00;44.75;101378.97;4183522;28;20095;-64
2022/05/05 01:33:21;;;;;;;20.15;7.40;;;;;;;23.10;45.08;101394.00;4183185;28;20098;-64
2022/05/05 01:35:22;;;;;;;16.70;7.78;;;;;;;23.09;44.80;101401.50;4183387;28;20045;-65
2022/05/05 01:37:27;;;;;;;18.15;8.80;;;;;;;23.09;44.66;101395.91;4183102;28;20098;-64
2022/05/05 01:39:28;;;;;;;19.92;8.48;;;;;;;23.08;44.77;101394.25;4183126;28;20037;-64
2022/05/05 01:41:30;;;;;;;20.33;8.07;;;;;;;23.08;45.05;101395.09;4183018;28;20033;-65
2022/05/05 01:43:36;;;;;;;22.92;8.77;;;;;;;23.06;44.84;101388.13;4183113;28;20091;-66
2022/05/05 01:45:37;;;;;;;23.50;9.40;;;;;;;23.08;44.85;101397.88;4183062;28;20098;-66
2022/05/05 01:47:39;;;;;;;22.13;7.97;;;;;;;23.07;44.99;101395.38;4183439;28;20045;-65
2022/05/05 01:49:46;;;;;;;20.77;7.32;;;;;;;23.07;44.80;101401.81;4183265;28;20049;-65
2022/05/05 01:51:48;;;;;;;17.13;8.13;;;;;;;23.07;44.88;101406.56;4182844;28;20468;-65
2022/05/05 01:53:49;;;;;;;17.05;7.57;;;;;;;23.06;44.84;101411.31;4182922;28;20095;-65
2022/05/05 01:55:51;;;;;;;23.15;7.68;;;;;;;23.08;44.59;101411.00;4182816;28;20075;-64
2022/05/05 01:57:55;;;;;;;19.65;8.27;;;;;;;23.06;44.77;101422.47;4180428;28;20041;-66
2022/05/05 01:59:57;;;;;;;18.90;7.68;;;;;;;23.04;45.02;101426.66;4181709;28;20094;-65
2022/05/05 02:01:58;;;;;;;15.82;7.28;;;;;;;23.05;45.09;101426.38;4182936;28;20044;-65
2022/05/05 02:04:09;;;;;;;18.63;7.90;;;;;;;22.98;44.92;101419.41;4183104;28;20102;-65
2022/05/05 02:06:13;;;;;;;20.45;7.70;;;;;;;23.06;44.98;101438.38;4182487;28;20094;-66
2022/05/05 02:08:14;;;;;;;18.50;7.28;;;;;;;23.04;44.98;101437.81;4166229;28;20025;-66
2022/05/05 02:10:19;;;;;;;16.52;7.50;;;;;;;22.98;44.92;101431.41;4166417;28;20314;-64
2022/05/05 02:12:20;;;;;;;18.30;8.02;;;;;;;23.04;44.95;101440.59;4165692;28;20491;-66
2022/05/05 02:14:24;;;;;;;15.55;6.82;;;;;;;22.87;44.89;101424.16;4170517;28;20041;-66
2022/05/05 02:16:26;;;;;;;16.73;7.72;;;;;;;23.05;44.93;101450.69;4181971;28;20098;-63
2022/05/05 02:18:27;;;;;;;16.88;7.38;;;;;;;22.93;44.77;101427.81;4182765;28;20110;-63
2022/05/05 02:20:30;;;;;;;23.95;8.00;;;;;;;23.06;45.11;101455.13;4179091;28;20104;-64
2022/05/05 02:22:31;;;;;;;18.30;7.38;;;;;;;22.93;44.92;101436.19;4177172;28;20049;-65
2022/05/05 02:24:32;;;;;;;18.10;7.57;;;;;;;23.07;45.05;101454.00;4183774;28;20501;-65
2022/05/05 02:26:34;;;;;;;13.77;6.90;;;;;;;22.99;44.98;101437.81;4178529;28;20041;-64
2022/05/05 02:28:35;;;;;;;19.63;8.02;;;;;;;23.05;44.78;101456.25;4182051;28;20544;-63
2022/05/05 02:30:37;;;;;;;16.38;7.43;;;;;;;23.06;45.05;101455.13;4181223;28;20046;-63
2022/05/05 02:32:38;;;;;;;16.63;7.53;;;;;;;23.08;45.08;101452.88;4171353;28;20476;-63
2022/05/05 02:34:40;;;;;;;21.65;7.80;;;;;;;23.08;45.14;101458.47;4182333;28;20040;-63
2022/05/05 02:39:01;;;;;;;16.35;7.43;;;;;;;23.05;44.93;101459.06;4166088;28;20534;-64
2022/05/05 02:41:02;;;;;;;20.00;7.72;;;;;;;22.98;45.10;101456.53;4165674;28;20473;-64
2022/05/05 02:43:04;;;;;;;19.77;8.10;;;;;;;23.03;44.92;101464.06;4172069;28;20063;-64
2022/05/05 02:45:08;;;;;;;16.45;7.15;;;;;;;23.06;45.39;101471.88;4181830;28;20049;-62
2022/05/05 02:47:10;;;;;;;17.27;7.70;;;;;;;23.03;44.93;101472.44;4165246;28;20504;-64
2022/05/05 02:49:13;;;;;;;20.58;8.07;;;;;;;23.06;44.91;101474.66;4174527;28;20082;-64
2022/05/05 02:51:14;;;;;;;19.02;7.95;;;;;;;23.07;44.99;101474.38;4177100;28;20037;-64
2022/05/05 02:55:41;;;;;;;21.45;8.00;;;;;;;23.06;44.90;101477.47;4196674;28;20114;-63
2022/05/05 02:57:43;;;;;;;16.17;7.35;;;;;;;22.86;45.04;101449.53;4176782;28;20049;-69
2022/05/05 02:59:50;;;;;;;20.05;7.20;;;;;;;23.05;45.47;101490.59;4173617;28;20526;-64
2022/05/05 03:01:51;;;;;;;15.35;6.80;;;;;;;22.98;45.21;101481.66;4192596;28;20048;-65
2022/05/05 03:03:53;;;;;;;13.18;7.15;;;;;;;23.05;45.35;101503.72;4194428;28;20044;-64
2022/05/05 03:05:54;;;;;;;19.10;7.38;;;;;;;23.06;44.96;101480.25;4185363;28;20090;-64
2022/05/05 03:07:56;;;;;;;18.55;7.47;;;;;;;23.06;44.92;101485.84;4193367;28;20090;-64
2022/05/05 03:09:57;;;;;;;15.90;7.50;;;;;;;23.05;45.01;101489.75;4176715;28;20106;-64
2022/05/05 03:11:58;;;;;;;19.30;7.80;;;;;;;23.00;45.08;101473.00;4169112;28;20459;-65
2022/05/05 03:14:00;;;;;;;12.65;6.75;;;;;;;23.05;45.18;101484.16;4189000;28;20033;-65
2022/05/05 03:16:01;;;;;;;15.27;8.43;;;;;;;23.05;45.30;101489.75;4179818;28;20098;-65
2022/05/05 03:18:02;;;;;;;16.77;7.65;;;;;;;23.06;44.94;101491.41;4171334;28;20092;-64
2022/05/05 03:20:04;;;;;;;13.52;7.57;;;;;;;23.06;45.36;101494.22;4165749;28;20091;-66
2022/05/05 03:22:06;;;;;;;16.55;7.68;;;;;;;23.03;45.16;101489.19;4168229;28;20547;-64
2022/05/05 03:24:07;;;;;;;15.45;7.10;;;;;;;23.05;45.25;101503.72;4165981;28;20512;-64
2022/05/05 03:26:09;;;;;;;14.50;6.95;;;;;;;23.04;45.12;101504.81;4168467;28;20037;-64
2022/05/05 03:28:10;;;;;;;18.00;7.32;;;;;;;23.02;45.10;101515.44;4180876;28;20071;-64
2022/05/05 03:30:20;;;;;;;14.30;7.50;;;;;;;22.98;45.02;101509.56;4180966;28;20040;-64
2022/05/05 03:32:21;;;;;;;13.80;7.35;;;;;;;23.06;45.11;101522.13;4175301;28;20424;-65
2022/05/05 03:34:23;;;;;;;14.18;6.78;;;;;;;23.07;45.25;101515.41;4175734;28;20098;-65
2022/05/05 03:36:24;;;;;;;15.10;6.88;;;;;;;23.07;45.23;101518.22;4197866;28;20098;-65
2022/05/05 03:38:26;;;;;;;14.57;7.72;;;;;;;23.02;45.21;101505.09;4196092;28;20468;-65
2022/05/05 03:40:28;;;;;;;15.70;7.57;;;;;;;23.05;45.23;101514.88;4196594;28;20072;-63
2022/05/05 03:42:29;;;;;;;18.33;7.68;;;;;;;22.89;45.19;101493.63;4190392;28;20583;-66
2022/05/05 03:44:31;;;;;;;13.98;7.00;;;;;;;23.05;45.06;101515.72;4165396;28;20111;-65
2022/05/05 03:46:32;;;;;;;17.50;7.53;;;;;;;23.04;45.46;101508.44;4186438;28;20098;-64
2022/05/05 03:48:33;;;;;;;16.50;7.15;;;;;;;23.03;45.67;101517.94;4184610;28;20041;-64
2022/05/05 03:50:38;;;;;;;14.88;6.97;;;;;;;23.05;45.38;101521.28;4190667;28;20472;-65
2022/05/05 03:52:39;;;;;;;13.45;7.10;;;;;;;23.05;45.60;101520.47;4191961;28;20099;-67
2022/05/05 03:54:41;;;;;;;13.73;6.53;;;;;;;23.04;45.36;101525.19;4186333;28;20102;-63
2022/05/05 03:56:44;;;;;;;13.10;6.78;;;;;;;23.06;45.41;101528.53;4188421;28;20078;-65
2022/05/05 03:58:45;;;;;;;11.90;6.90;;;;;;;22.89;45.16;101505.66;4183759;28;20033;-65
2022/05/05 04:00:47;;;;;;;15.35;7.07;;;;;;;23.07;45.10;101534.97;4184373;28;20098;-64
2022/05/05 04:03:30;;;;;;;16.50;7.25;;;;;;;23.05;45.10;101537.22;4182082;28;20099;-65
2022/05/05 04:05:09;;;;;;;16.02;7.75;;;;;;;23.06;45.06;101541.66;4181131;28;20079;-66
2022/05/05 04:07:11;;;;;;;15.75;6.78;;;;;;;23.06;45.08;101550.88;4180688;28;20091;-65
2022/05/05 04:09:12;;;;;;;20.50;7.95;;;;;;;23.08;45.28;101553.38;4179295;28;20533;-64
2022/05/05 04:11:14;;;;;;;20.15;7.32;;;;;;;23.06;45.17;101552.84;4181647;28;20099;-65
2022/05/05 04:13:15;;;;;;;13.82;7.32;;;;;;;23.06;45.47;101561.19;4180781;28;20105;-64
2022/05/05 04:15:17;;;;;;;16.00;7.03;;;;;;;23.05;45.34;101563.16;4180208;28;20040;-64
2022/05/05 04:17:18;;;;;;;15.90;7.57;;;;;;;23.03;45.75;101557.00;4180869;28;20041;-64
2022/05/05 04:19:19;;;;;;;14.02;6.95;;;;;;;23.07;45.74;101562.88;4196907;28;20070;-65
2022/05/05 04:21:21;;;;;;;12.50;6.95;;;;;;;23.07;45.11;101571.25;4196794;28;20024;-65
2022/05/05 04:23:22;;;;;;;12.93;7.63;;;;;;;22.93;45.36;101547.81;4199995;28;20098;-65
2022/05/05 04:25:24;;;;;;;13.38;7.57;;;;;;;23.04;45.06;101575.41;4200222;28;20040;-64
2022/05/05 04:27:25;;;;;;;16.88;7.05;;;;;;;23.06;45.29;101578.78;4201207;28;20480;-65
2022/05/05 04:29:27;;;;;;;17.88;7.13;;;;;;;23.08;45.07;101581.28;4200990;28;20386;-64
2022/05/05 04:31:29;;;;;;;13.82;7.05;;;;;;;23.10;45.27;101598.63;4200260;28;20044;-64
2022/05/05 04:33:31;;;;;;;15.73;7.38;;;;;;;23.09;44.98;101594.13;4201135;28;20109;-65
2022/05/05 04:35:35;;;;;;;11.57;6.82;;;;;;;23.06;44.85;101586.31;4199713;28;20231;-65
2022/05/05 04:37:39;;;;;;;12.23;7.13;;;;;;;23.06;45.00;101589.13;4201129;28;20783;-65
2022/05/05 04:39:42;;;;;;;15.60;6.93;;;;;;;23.11;45.26;101594.69;4191940;28;20098;-65
2022/05/05 04:41:46;;;;;;;10.80;7.07;;;;;;;23.11;44.76;101591.06;4184358;28;20045;-65
2022/05/05 04:43:47;;;;;;;12.55;7.47;;;;;;;23.09;45.17;101594.13;4183910;28;20045;-64
2022/05/05 04:45:49;;;;;;;13.13;6.60;;;;;;;23.10;44.98;101583.81;4183818;28;20044;-64
2022/05/05 04:47:53;;;;;;;15.25;6.47;;;;;;;23.08;45.17;101587.69;4184229;28;20041;-64
2022/05/05 04:49:56;;;;;;;12.57;6.85;;;;;;;23.09;44.76;101588.53;4183371;28;20480;-65
2022/05/05 04:51:58;;;;;;;12.70;6.90;;;;;;;23.10;45.06;101589.41;4188583;28;20102;-65
2022/05/05 04:54:02;;;;;;;14.40;7.13;;;;;;;23.11;45.00;101586.31;4200720;28;20057;-65
2022/05/05 04:56:06;;;;;;;12.00;6.32;;;;;;;23.10;44.65;101590.25;4200459;28;20082;-64
2022/05/05 04:58:08;;;;;;;15.07;6.38;;;;;;;23.10;44.91;101590.25;4200274;28;20094;-65
2022/05/05 05:00:09;;;;;;;11.85;6.18;;;;;;;23.11;44.72;101597.50;4204809;28;20024;-65
2022/05/05 05:02:11;;;;;;;12.02;6.47;;;;;;;23.09;44.98;101594.13;4200141;28;20098;-65
2022/05/05 05:04:12;;;;;;;15.57;7.05;;;;;;;23.09;45.02;101591.31;4200356;28;20101;-65
2022/05/05 05:06:16;;;;;;;12.13;6.32;;;;;;;23.08;44.99;101586.88;4200192;28;20529;-65
2022/05/05 05:08:17;;;;;;;12.10;6.22;;;;;;;23.07;45.11;101586.03;4200237;28;20040;-64
2022/05/05 05:10:19;;;;;;;14.13;7.57;;;;;;;23.06;45.01;101577.97;4184007;28;20439;-65
2022/05/05 05:12:20;;;;;;;14.48;6.75;;;;;;;23.07;44.90;101585.19;4183849;28;20435;-65
2022/05/05 05:14:24;;;;;;;13.82;6.90;;;;;;;23.06;44.89;101583.53;4183478;28;20045;-65
2022/05/05 05:16:26;;;;;;;16.77;6.85;;;;;;;21.38;45.16;101327.69;4183194;28;20480;-65
2022/05/05 05:18:30;;;;;;;11.57;6.38;;;;;;;23.06;44.67;101575.16;4183853;28;20029;-65
2022/05/05 05:20:34;;;;;;;10.52;6.05;;;;;;;23.04;45.07;101572.63;4182529;28;20029;-64
2022/05/05 05:22:36;;;;;;;14.40;7.13;;;;;;;23.04;44.87;101580.16;4167052;28;20041;-65
2022/05/05 05:24:38;;;;;;;11.10;6.70;;;;;;;23.04;44.82;101574.59;4179856;28;20294;-65
2022/05/05 05:27:00;;;;;;;13.68;6.60;;;;;;;22.90;45.00;101545.56;4166602;28;20037;-65
2022/05/05 05:29:01;;;;;;;13.68;6.57;;;;;;;23.02;45.04;101565.66;4176757;28;20079;-65
2022/05/05 05:31:03;;;;;;;11.05;5.93;;;;;;;23.02;45.00;101566.50;4194865;28;20036;-65
2022/05/05 05:33:04;;;;;;;10.07;6.13;;;;;;;22.55;44.94;101488.66;4183292;28;20110;-65
2022/05/05 05:35:06;;;;;;;12.90;6.97;;;;;;;23.05;44.60;101570.69;4183300;28;20033;-65
2022/05/05 05:37:07;;;;;;;12.25;6.38;;;;;;;23.03;44.70;101572.91;4182980;28;20033;-64
2022/05/05 05:39:09;;;;;;;12.93;7.22;;;;;;;23.03;44.60;101576.53;4183191;28;20044;-65
2022/05/05 05:41:10;;;;;;;9.70;5.40;;;;;;;23.05;45.04;101565.94;4190943;28;20055;-64
2022/05/05 05:43:11;;;;;;;9.45;5.95;;;;;;;23.05;44.74;101570.69;4189619;28;20081;-65
2022/05/05 05:45:16;;;;;;;10.65;6.28;;;;;;;22.96;44.97;101555.63;4188891;28;20050;-65
2022/05/05 05:47:17;;;;;;;12.77;6.22;;;;;;;23.00;45.02;101563.16;4193465;28;20500;-65
2022/05/05 05:49:18;;;;;;;9.98;5.93;;;;;;;23.04;45.07;101557.84;4194092;28;20087;-64
2022/05/05 05:51:20;;;;;;;10.15;6.40;;;;;;;23.03;44.73;101567.34;4182961;28;20090;-65
2022/05/05 05:53:21;;;;;;;12.57;6.72;;;;;;;23.04;44.80;101557.84;4182862;28;20040;-64
2022/05/05 05:55:22;;;;;;;11.80;5.95;;;;;;;23.03;45.02;101556.16;4183038;28;20037;-65
2022/05/05 05:57:24;;;;;;;9.38;5.82;;;;;;;22.96;44.84;101550.88;4182884;28;20465;-64
2022/05/05 05:59:25;;;;;;;12.57;7.22;;;;;;;22.97;44.89;101548.94;4182895;28;20106;-64
2022/05/05 06:03:57;;;;;;;11.80;6.35;;;;;;;23.06;44.64;101566.78;4199775;28;20078;-64
2022/05/05 06:06:00;;;;;;;8.68;5.35;;;;;;;23.02;44.65;101555.34;4192266;28;20087;-65
2022/05/05 06:08:06;;;;;;;10.40;5.60;;;;;;;23.05;44.81;101554.78;4182668;28;20044;-65
2022/05/05 06:10:08;;;;;;;8.13;5.40;;;;;;;23.05;44.64;101549.22;4182739;28;20029;-65
2022/05/05 06:12:10;;;;;;;10.82;5.68;;;;;;;23.05;44.60;101543.63;4183008;28;20099;-65
2022/05/05 06:14:11;;;;;;;11.35;5.97;;;;;;;23.04;44.86;101541.09;4182569;28;20037;-64
2022/05/05 06:16:12;;;;;;;13.15;5.97;;;;;;;23.03;44.91;101545.00;4184547;28;20143;-65
2022/05/05 06:18:14;;;;;;;10.75;6.28;;;;;;;23.03;44.99;101548.63;4183170;28;20483;-65
2022/05/05 06:20:18;;;;;;;10.95;5.32;;;;;;;23.02;44.89;101549.75;4182855;28;20041;-65
2022/05/05 06:22:20;;;;;;;11.07;5.82;;;;;;;23.03;44.72;101548.63;4182821;28;20040;-65
2022/05/05 06:24:24;;;;;;;8.40;5.93;;;;;;;23.04;44.99;101552.25;4182656;28;20036;-65
2022/05/05 06:26:28;;;;;;;9.38;6.00;;;;;;;23.03;44.70;101562.59;4182121;28;20087;-65
2022/05/05 06:28:29;;;;;;;9.87;5.77;;;;;;;23.05;44.64;101570.69;4182900;28;20435;-65
2022/05/05 06:30:34;;;;;;;10.45;6.10;;;;;;;22.86;44.53;101538.84;4182345;28;20045;-65
2022/05/05 06:32:35;;;;;;;9.93;5.70;;;;;;;23.03;44.70;101561.75;4181114;28;20052;-65
2022/05/05 06:34:39;;;;;;;9.68;5.82;;;;;;;23.04;44.94;101563.41;4183203;28;20423;-65
2022/05/05 06:36:41;;;;;;;7.82;5.25;;;;;;;23.04;44.83;101569.00;4182388;28;20383;-65
2022/05/05 06:38:42;;;;;;;8.98;5.30;;;;;;;23.05;44.72;101581.88;4182522;28;20033;-65
2022/05/05 06:40:44;;;;;;;8.15;5.60;;;;;;;23.03;44.79;101584.91;4181192;28;20102;-65
2022/05/05 06:42:48;;;;;;;11.27;5.80;;;;;;;23.02;44.62;101590.78;4187635;28;20085;-65
2022/05/05 06:44:49;;;;;;;11.82;5.45;;;;;;;23.02;44.94;101583.25;4195649;28;20146;-65
2022/05/05 06:46:51;;;;;;;7.22;4.88;;;;;;;23.02;44.43;101577.66;4197136;28;20032;-65
2022/05/05 06:48:55;;;;;;;8.35;5.32;;;;;;;22.95;44.44;101562.31;4196661;28;20048;-65
2022/05/05 06:51:02;;;;;;;9.90;5.85;;;;;;;22.87;44.61;101552.53;4197687;28;20040;-65
2022/05/05 06:53:06;;;;;;;7.57;5.70;;;;;;;23.02;44.31;101565.66;4197207;28;20037;-66
2022/05/05 06:55:11;;;;;;;8.85;5.18;;;;;;;22.96;44.85;101555.63;4196514;28;20044;-65
2022/05/05 06:57:12;;;;;;;8.07;4.85;;;;;;;23.00;44.78;101567.88;4196971;28;20070;-65
2022/05/05 06:59:14;;;;;;;8.85;5.03;;;;;;;23.03;44.81;101570.13;4195709;28;20094;-65
2022/05/05 07:03:35;;;;;;;9.85;5.20;;;;;;;22.86;44.73;101548.03;4198734;28;20106;-65
2022/05/05 07:05:36;;;;;;;8.68;4.93;;;;;;;22.98;44.92;101557.00;4198482;28;20185;-65
2022/05/05 07:07:40;;;;;;;9.52;5.25;;;;;;;22.98;44.58;101550.59;4198709;28;20446;-65
2022/05/05 07:12:06;;;;;;;6.35;5.15;;;;;;;22.96;44.67;101541.69;4198329;28;20093;-65
2022/05/05 07:14:08;;;;;;;5.57;4.47;;;;;;;22.84;44.70;101526.00;4198159;28;20108;-65
2022/05/05 07:16:11;;;;;;;7.55;4.80;;;;;;;22.88;44.67;101520.72;4180976;28;20459;-65
2022/05/05 07:18:13;;;;;;;5.82;4.13;;;;;;;22.96;44.67;101544.47;4194477;28;20102;-67
2022/05/05 07:20:14;;;;;;;9.10;5.28;;;;;;;22.96;44.70;101539.72;4200822;28;20541;-65
2022/05/05 07:22:16;;;;;;;9.20;5.00;;;;;;;22.78;44.71;101502.03;4196989;28;20090;-65
2022/05/05 07:24:17;;;;;;;8.23;5.00;;;;;;;22.96;44.66;101545.31;4192589;28;20545;-65
2022/05/05 07:26:18;;;;;;;7.55;4.57;;;;;;;22.95;44.76;101543.59;4198099;28;20040;-66
2022/05/05 07:28:20;;;;;;;6.55;4.35;;;;;;;22.96;44.67;101550.06;4195548;28;20098;-66
2022/05/05 07:30:24;;;;;;;10.18;5.03;;;;;;;22.89;44.79;101532.72;4197618;28;20472;-65
2022/05/05 07:32:25;;;;;;;7.85;4.32;;;;;;;22.94;44.57;101546.69;4196778;28;20078;-65
2022/05/05 07:34:26;;;;;;;8.80;4.63;;;;;;;22.95;44.59;101545.56;4197135;28;20093;-65
2022/05/05 07:36:28;;;;;;;8.18;4.68;;;;;;;22.96;44.74;101555.63;4200110;28;20377;-66
2022/05/05 07:38:35;;;;;;;6.78;4.45;;;;;;;22.94;44.74;101557.84;4198312;28;20040;-65
2022/05/05 07:40:37;;;;;;;9.15;5.25;;;;;;;22.95;44.78;101565.94;4194631;28;20028;-65
2022/05/05 07:42:42;;;;;;;7.05;4.47;;;;;;;22.95;44.41;101565.94;4165338;28;20099;-65
2022/05/05 07:44:43;;;;;;;7.22;4.90;;;;;;;22.97;44.76;101568.47;4193722;28;20052;-65
2022/05/05 07:46:45;;;;;;;6.38;4.40;;;;;;;22.89;44.77;101555.91;4183079;28;20098;-65
2022/05/05 07:48:46;;;;;;;9.15;4.78;;;;;;;22.97;44.51;101562.88;4180804;28;20091;-65
2022/05/05 07:50:51;;;;;;;7.70;4.30;;;;;;;22.97;44.69;101562.88;4183461;28;20415;-68
2022/05/05 07:52:58;;;;;;;7.85;4.50;;;;;;;22.98;44.67;101570.13;4181128;28;20041;-65
2022/05/05 07:55:00;;;;;;;6.70;4.10;;;;;;;22.96;44.67;101575.19;4181329;28;20678;-65
2022/05/05 07:57:08;;;;;;;8.65;4.50;;;;;;;22.95;44.46;101576.25;4200301;28;20036;-65
2022/05/05 07:59:10;;;;;;;7.75;4.43;;;;;;;22.94;44.67;101586.59;4194183;28;20041;-65
2022/05/05 08:01:14;;;;;;;9.38;4.65;;;;;;;22.94;44.53;101596.94;4181105;28;20033;-66
2022/05/05 08:03:15;;;;;;;8.02;4.10;;;;;;;22.94;44.62;101596.94;4181295;28;20103;-66
2022/05/05 08:05:17;;;;;;;9.30;4.30;;;;;;;22.93;44.93;101604.47;4183374;28;20037;-65
2022/05/05 08:07:19;;;;;;;6.75;4.05;;;;;;;22.94;44.56;101602.50;4180690;28;20037;-65
2022/05/05 08:09:20;;;;;;;6.88;3.83;;;;;;;22.79;44.76;101579.03;4179981;28;20045;-65
2022/05/05 08:11:22;;;;;;;5.20;3.83;;;;;;;22.94;44.86;101608.94;4183925;28;20049;-65
2022/05/05 08:13:23;;;;;;;6.00;4.15;;;;;;;22.74;44.84;101590.19;4181227;28;20033;-65
2022/05/05 08:15:24;;;;;;;6.40;4.03;;;;;;;22.73;44.85;101590.47;4184706;28;20032;-65
2022/05/05 08:17:26;;;;;;;5.22;4.07;;;;;;;22.93;45.00;101623.16;4191817;28;20102;-66
2022/05/05 08:19:27;;;;;;;7.03;3.90;;;;;;;22.84;44.69;101614.47;4183122;28;20048;-65
2022/05/05 08:21:28;;;;;;;6.97;3.90;;;;;;;22.93;44.55;101624.00;4195412;28;20102;-65
2022/05/05 08:23:30;;;;;;;6.43;4.05;;;;;;;22.93;44.70;101623.16;4196122;28;20143;-65
2022/05/05 08:30:12;;;;;;;6.03;4.10;;;;;;;22.90;44.74;101629.28;4190964;28;20087;-65
2022/05/05 08:32:14;;;;;;;6.03;4.28;;;;;;;22.91;44.70;101637.41;4188500;28;20048;-65
2022/05/05 08:34:15;;;;;;;6.88;4.25;;;;;;;22.90;44.35;101635.72;4195345;28;20460;-65
2022/05/05 08:36:17;;;;;;;6.78;4.00;;;;;;;22.94;44.38;101649.94;4194746;28;20040;-65
2022/05/05 08:38:18;;;;;;;7.10;4.22;;;;;;;22.79;44.69;101623.69;4180236;28;20110;-65
2022/05/05 08:40:24;;;;;;;5.95;3.95;;;;;;;22.90;44.67;101632.91;4194568;28;20044;-65
2022/05/05 08:42:25;;;;;;;5.55;3.75;;;;;;;22.91;44.50;101636.53;4164681;28;20091;-65
2022/05/05 08:44:26;;;;;;;8.23;3.47;;;;;;;22.99;44.30;101649.97;4173044;28;20114;-65
2022/05/05 08:46:33;;;;;;;6.85;4.15;;;;;;;22.97;44.34;101641.03;4189360;28;20044;-65
2022/05/05 08:48:35;;;;;;;6.00;4.28;;;;;;;23.00;44.42;101629.28;4196236;28;20102;-65
2022/05/05 08:50:44;;;;;;;5.72;4.00;;;;;;;22.98;44.53;101626.78;4194754;28;20044;-65
2022/05/05 08:52:48;;;;;;;7.38;3.78;;;;;;;22.81;44.41;101599.13;4180784;28;20475;-65
2022/05/05 08:54:50;;;;;;;4.32;3.33;;;;;;;22.97;44.73;101624.28;4194947;28;20041;-65
2022/05/05 08:56:52;;;;;;;6.60;3.33;;;;;;;22.98;44.58;101632.38;4193202;28;20487;-65
2022/05/05 08:58:56;;;;;;;5.13;3.53;;;;;;;22.98;44.75;101639.91;4182072;28;20045;-65
2022/05/05 09:00:58;;;;;;;5.07;3.30;;;;;;;22.98;44.41;101631.53;4193280;28;20094;-65
2022/05/05 09:03:00;;;;;;;5.82;3.40;;;;;;;22.97;44.38;101638.25;4194368;28;20044;-65
2022/05/05 09:05:03;;;;;;;5.97;3.30;;;;;;;22.97;44.62;101635.47;4184669;28;20115;-65
2022/05/05 09:07:04;;;;;;;6.85;3.42;;;;;;;22.93;44.62;101631.53;4193266;28;20098;-65
2022/05/05 09:09:06;;;;;;;3.15;2.67;;;;;;;22.96;44.14;101634.63;4186721;28;20092;-65
2022/05/05 09:11:07;;;;;;;5.47;3.30;;;;;;;22.94;44.56;101630.41;4183631;28;20078;-65
2022/05/05 09:13:11;;;;;;;4.40;3.20;;;;;;;22.95;44.55;101634.88;4183729;28;20041;-65
2022/05/05 09:15:16;;;;;;;4.75;3.50;;;;;;;22.96;44.53;101625.41;4184518;28;20719;-65
2022/05/05 09:17:25;;;;;;;5.32;3.60;;;;;;;22.95;44.42;101626.50;4186293;28;20515;-65
2022/05/05 09:19:27;;;;;;;4.60;3.05;;;;;;;22.95;44.67;101629.28;4195411;28;20442;-65
2022/05/05 09:21:34;;;;;;;4.38;2.92;;;;;;;22.94;44.60;101614.50;4198185;28;20097;-65
2022/05/05 09:24:34;;;;;;;4.07;3.33;;;;;;;22.83;44.40;101585.75;4194211;28;20041;-65
2022/05/05 09:26:05;;;;;;;3.75;3.00;;;;;;;22.98;44.38;101614.78;4197545;28;20090;-65
2022/05/05 09:28:37;;;;;;;5.18;3.20;;;;;;;22.84;44.66;101581.81;4182948;28;20041;-64
2022/05/05 09:30:46;;;;;;;3.75;3.22;;;;;;;22.98;44.38;101606.41;4170319;28;20046;-65
2022/05/05 09:32:47;;;;;;;3.85;2.90;;;;;;;22.98;44.50;101604.47;4183348;28;20099;-65
2022/05/05 09:34:59;;;;;;;5.22;2.85;;;;;;;22.97;44.77;101596.38;4186413;28;20057;-65
2022/05/05 09:37:19;;;;;;;5.25;3.50;;;;;;;22.97;44.29;101599.16;4198181;28;20040;-65
2022/05/05 09:39:20;;;;;;;3.40;2.80;;;;;;;23.00;44.23;101598.59;4198388;28;20048;-65
2022/05/05 09:41:28;;;;;;;6.70;3.38;;;;;;;22.99;44.41;101600.53;4198025;28;20041;-65
2022/05/05 09:43:33;;;;;;;3.28;2.90;;;;;;;22.98;44.12;101598.03;4198186;28;20502;-66
2022/05/05 09:45:37;;;;;;;6.72;3.00;;;;;;;22.98;44.41;101604.47;4198174;28;20098;-65
2022/05/05 09:47:39;;;;;;;4.33;3.13;;;;;;;22.97;44.42;101597.22;4192725;28;20045;-65
2022/05/05 09:49:41;;;;;;;4.90;3.53;;;;;;;22.95;44.17;101598.59;4183948;28;20147;-65
2022/05/05 09:58:59;;;;;;;4.70;2.83;;;;;;;22.96;44.10;101600.28;4196509;28;20099;-65
2022/05/05 10:01:05;;;;;;;4.05;3.05;;;;;;;22.96;44.17;101611.47;4182686;28;20037;-65